EST,Max TemperatureF,Mean TemperatureF,Min TemperatureF,Max Dew PointF,MeanDew PointF,Min DewpointF,Max Humidity, Mean Humidity, Min Humidity, Max Sea Level PressureIn, Mean Sea Level PressureIn, Min Sea Level PressureIn, Max VisibilityMiles, Mean VisibilityMiles, Min VisibilityMiles, Max Wind SpeedMPH, Mean Wind SpeedMPH, Max Gust SpeedMPH,PrecipitationIn, CloudCover, Events, WindDirDegrees
2012-2-1,48,46,43,44,43,41,93,87,80,30.04,29.92,29.83,10,7,5,20,11,26,0.00,3,Rain,234
2012-2-2,46,41,35,37,33,28,87,76,65,30.11,30.00,29.94,10,10,10,26,12,34,0.00,4,,1
2012-2-3,34,31,28,25,22,18,72,66,56,30.33,30.26,30.13,10,10,9,21,17,31,0.00,5,Snow,335
2012-2-4,44,38,33,28,24,16,73,58,42,30.26,30.17,30.10,10,10,10,17,11,24,0.00,2,,311
2012-2-5,36,30,24,20,18,15,75,60,48,30.13,30.10,30.06,10,10,10,13,9,22,0.00,0,,339
2012-2-6,45,36,28,38,30,18,82,69,55,30.09,30.00,29.92,10,10,8,29,15,36,0.00,0,,255
2012-2-7,48,42,36,37,31,25,86,66,44,30.19,30.02,29.92,10,10,10,16,12,20,0.00,1,,315
2012-2-8,37,32,27,29,24,18,76,65,52,30.31,30.21,30.06,10,10,10,17,10,,0.00,3,,74
2012-2-9,43,38,34,33,27,17,86,67,38,30.11,30.02,29.98,10,10,10,14,9,16,0.00,3,,306
2012-2-10,46,37,28,39,33,21,100,78,64,30.15,30.07,29.93,10,10,6,15,8,,0.00,1,Rain,207
2012-2-11,43,38,33,40,35,27,100,90,70,29.90,29.64,29.41,10,7,1,26,13,37,0.20,8,Rain-Snow,343
2012-2-12,35,28,21,27,13,7,75,53,37,29.88,29.63,29.44,10,10,8,30,21,40,0.00,4,Snow,314
2012-2-13,39,29,19,30,20,7,70,59,49,30.01,29.92,29.87,10,10,10,30,15,38,0.00,2,,266
2012-2-14,44,37,30,38,30,13,89,72,28,30.14,30.10,30.02,10,10,10,9,7,,0.00,4,,201
2012-2-15,46,44,39,45,41,39,100,92,80,30.22,30.16,30.12,10,9,6,8,6,,0.00,8,Rain,48
2012-2-16,46,39,32,39,37,32,100,92,68,30.28,30.22,30.09,10,5,0,9,4,,0.00,4,Fog-Rain,267
2012-2-17,46,42,37,45,40,26,100,90,60,30.08,29.93,29.83,10,6,0,17,6,25,0.01,6,Fog-Rain,237
2012-2-18,44,40,35,33,27,21,73,62,45,29.98,29.93,29.89,10,10,10,20,13,29,0.00,2,,271
2012-2-19,42,34,26,33,27,23,88,70,53,30.04,29.99,29.95,10,10,10,17,10,25,0.00,0,,358
2012-2-20,39,36,32,26,21,15,75,56,41,30.27,30.06,29.93,10,10,10,25,16,34,0.00,1,,357
2012-2-21,44,36,28,41,27,20,89,66,47,30.35,30.20,29.87,10,10,6,17,11,,0.02,2,Rain,193
2012-2-22,48,44,39,44,41,39,100,91,80,29.87,29.74,29.62,10,6,4,16,11,22,0.13,2,Rain,216
2012-2-23,51,46,41,46,40,26,97,80,46,29.79,29.53,29.41,10,7,1,20,12,28,0.34,4,Rain,220
2012-2-24,51,42,33,50,39,26,100,90,67,29.82,29.52,29.14,10,5,0,30,10,43,0.70,8,Fog-Rain-Snow,111
2012-2-25,46,40,34,45,27,19,93,58,42,29.79,29.46,29.21,10,10,10,39,27,48,0.00,2,Rain,266
2012-2-26,42,36,30,19,13,8,56,40,27,30.45,30.21,29.83,10,10,10,28,19,37,0.00,0,,290
2012-2-27,46,34,23,40,30,14,86,71,48,30.48,30.31,30.07,10,10,7,17,7,,0.00,3,,196
2012-2-28,48,38,28,41,27,22,86,59,36,30.40,30.24,30.02,10,10,8,23,14,36,0.00,0,,315
2012-2-29,43,36,28,39,31,24,93,79,58,30.38,30.20,29.86,10,8,3,21,6,32,0.23,6,Rain-Snow,82